Terminal Aerodrome Forecast
Issued by NWS

Home | Current Version | Previous Version | Graphics & Text | Print | Product List | Glossary On
Versions: 1 2 3 4 5 6 7 8 9 10 11 12
730
FTUS42 KMHX 240534
TAFOAJ
TAF
KOAJ 240534Z 2406/2506 VRB04KT P6SM SKC
     FM241600 18009KT P6SM SCT045
     FM250500 VRB03KT P6SM SKC
      AMD LTD TO CLD VIS AND WIND=

USA.gov is the U.S. government's official web portal to all federal, state and local government web resources and services.